KRNH/RNH METAR and TAF weather

Enter ICAO airport designator
Station Type Date Time Source
KRNH METAR 2022/08/13 12:15 UTC NOAA

KRNH 131215Z AUTO 06005KT 10SM OVC015 15/13 A2996 RMK AO2 T01530129


Station Type Date Time Source
KRNH Decoded METAR 2022/08/13 12:15 UTC NOAA

New Richmond, New Richmond Municipal Airport, WI, United States (KRNH) 45-08-54N 092-32-17W
Aug 13, 2022 - 08:15 AM EDT / 2022.08.13 1215 UTC
Wind: from the ENE (060 degrees) at 6 MPH (5 KT):0
Visibility: 10 mile(s):0
Sky conditions: overcast
Temperature: 59.5 F (15.3 C)
Dew Point: 55.2 F (12.9 C)
Relative Humidity: 85%
Pressure (altimeter): 29.96 in. Hg (1014 hPa)
ob: KRNH 131215Z AUTO 06005KT 10SM OVC015 15/13 A2996 RMK AO2 T01530129
cycle: 12

Station Type Date Time Source
KRNH TAF 2022/08/13 12:22 UTC NOAA

TAF KRNH 131120Z 1312/1412 10005KT P6SM BKN080
TEMPO 1312/1314 P6SM BKN015
FM131400 05005KT P6SM BKN025
FM131800 02009KT P6SM BKN035
FM140300 VRB03KT P6SM SCT002

Example: see airport list